Saint Peter, Minnesota
Current Conditions -  °F | °C
As of 9:55 AM on Sunday 23 Nov 2014 (Local Time) from KMKT Reporting Station
Overcast Overcast  
Wind Chill: 50°   Ceiling: 300
Heat Index: 50°   Visibility: 1.2mi
Dew Point: 46°   Wind: 6mph
Humidity: 87%   Direction: 200°SSW
Pressure: 29.44"   Gusts: NA
Location:  44.32°N, 93.96°W
Report Text: KMKT 231555Z AUTO 20005KT 1 1/4SM OVC003 10/08 A2944 RMK AO1
Loading
Personal Weather Stations






























Interactive Weather Map New forecast layout! Learn more

10-Day Weather Forecast

Advertisements
Track Severe Weather on mobile